Time;durP1;ratioP1;P1;durP2;ratioP2;P2;SDS_P1;SDS_P2;PMS_P1;PMS_P2;Temp;Humidity;BMP_temperature;BMP_pressure;BME280_temperature;BME280_humidity;BME280_pressure;Samples;Min_cycle;Max_cycle;Signal;HPM_P1;HPM_P2
2023/10/20 09:55:24;;;;;;;669.25;616.82;;;;;;;19.43;66.72;96889.02;;;;-52
2023/10/20 09:58:25;;;;;;;772.30;715.82;;;;;;;19.46;66.68;96889.70;;;;-65
2023/10/20 10:01:25;;;;;;;722.40;668.45;;;;;;;19.51;66.64;96886.79;;;;-61
2023/10/20 10:04:25;;;;;;;651.73;601.37;;;;;;;19.55;66.42;96887.30;;;;-60
2023/10/20 10:07:24;;;;;;;672.35;620.69;;;;;;;19.60;66.12;96889.45;;;;-58
2023/10/20 10:10:25;;;;;;;686.57;634.45;;;;;;;19.65;66.03;96895.31;;;;-61
2023/10/20 10:13:25;;;;;;;720.02;666.89;;;;;;;19.70;65.83;96904.98;;;;-64
2023/10/20 10:16:25;;;;;;;674.51;623.09;;;;;;;19.73;65.76;96908.16;;;;-62
2023/10/20 10:19:25;;;;;;;661.36;610.77;;;;;;;19.77;65.53;96916.48;;;;-59
2023/10/20 10:22:25;;;;;;;651.70;601.84;;;;;;;19.81;65.42;96923.13;;;;-63
2023/10/20 10:25:24;;;;;;;670.27;618.99;;;;;;;19.84;65.28;96935.80;;;;-61
2023/10/20 10:28:25;;;;;;;692.73;640.67;;;;;;;19.87;65.25;96930.29;;;;-58
2023/10/20 10:31:25;;;;;;;696.95;644.33;;;;;;;19.89;65.23;96918.77;;;;-61
2023/10/20 10:34:25;;;;;;;721.89;668.57;;;;;;;19.92;65.29;96925.39;;;;-60
2023/10/20 10:37:25;;;;;;;683.69;632.03;;;;;;;19.93;65.11;96928.45;;;;-58
2023/10/20 10:40:25;;;;;;;714.88;661.99;;;;;;;19.95;65.07;96928.53;;;;-59
2023/10/20 10:43:24;;;;;;;676.40;624.93;;;;;;;19.98;65.03;96932.06;;;;-61
2023/10/20 10:46:24;;;;;;;666.89;616.01;;;;;;;20.01;64.87;96927.92;;;;-57
2023/10/20 10:49:24;;;;;;;601.99;553.20;;;;;;;20.02;64.85;96927.43;;;;-64
2023/10/20 10:52:25;;;;;;;629.66;579.60;;;;;;;20.04;64.87;96925.05;;;;-59
2023/10/20 10:55:25;;;;;;;674.89;622.87;;;;;;;20.06;64.87;96922.27;;;;-51
2023/10/20 10:58:25;;;;;;;699.85;646.89;;;;;;;20.09;64.99;96927.36;;;;-63
2023/10/20 11:01:25;;;;;;;659.45;607.85;;;;;;;20.11;64.97;96925.62;;;;-60
2023/10/20 11:04:24;;;;;;;644.67;593.59;;;;;;;20.13;64.95;96925.42;;;;-54
2023/10/20 11:07:24;;;;;;;665.32;613.77;;;;;;;20.16;64.97;96931.91;;;;-59
2023/10/20 11:10:26;;;;;;;660.08;609.06;;;;;;;20.17;64.69;96927.97;;;;-55
2023/10/20 11:13:24;;;;;;;655.85;604.67;;;;;;;20.18;64.73;96928.98;;;;-52
2023/10/20 11:16:25;;;;;;;625.74;575.57;;;;;;;20.19;64.64;96931.28;;;;-55
2023/10/20 11:19:25;;;;;;;678.87;626.92;;;;;;;20.18;64.62;96930.08;;;;-61
2023/10/20 11:22:24;;;;;;;664.83;613.36;;;;;;;20.19;64.49;96930.30;;;;-60
2023/10/20 11:25:24;;;;;;;651.93;601.08;;;;;;;20.19;64.50;96931.77;;;;-58
2023/10/20 11:28:25;;;;;;;690.75;638.54;;;;;;;20.21;64.46;96927.92;;;;-63
2023/10/20 11:31:25;;;;;;;652.05;600.83;;;;;;;20.21;64.38;96930.75;;;;-65
2023/10/20 11:34:25;;;;;;;665.84;613.60;;;;;;;20.22;64.34;96937.80;;;;-50
2023/10/20 11:37:25;;;;;;;579.89;531.32;;;;;;;20.23;64.47;96939.94;;;;-60
2023/10/20 11:40:26;;;;;;;607.52;557.52;;;;;;;20.23;64.44;96941.53;;;;-53
2023/10/20 11:43:24;;;;;;;605.53;555.47;;;;;;;20.25;64.38;96954.27;;;;-62
2023/10/20 11:46:24;;;;;;;574.32;523.49;;;;;;;20.25;64.11;96962.66;;;;-59
2023/10/20 11:49:24;;;;;;;609.44;559.96;;;;;;;20.24;64.15;96967.51;;;;-62
2023/10/20 11:52:24;;;;;;;569.41;521.78;;;;;;;20.23;63.97;96965.27;;;;-61
2023/10/20 11:55:25;;;;;;;561.39;514.01;;;;;;;20.22;63.88;96958.45;;;;-54
2023/10/20 11:58:25;;;;;;;551.09;504.43;;;;;;;20.20;63.82;96950.66;;;;-53
2023/10/20 12:01:25;;;;;;;539.43;493.12;;;;;;;20.19;63.74;96964.50;;;;-52
2023/10/20 12:04:25;;;;;;;569.13;521.63;;;;;;;20.18;63.79;96971.53;;;;-58
2023/10/20 12:07:24;;;;;;;660.80;608.85;;;;;;;20.18;63.73;96981.22;;;;-52
2023/10/20 12:10:27;;;;;;;677.51;624.43;;;;;;;20.17;63.68;97001.95;;;;-53
2023/10/20 12:13:25;;;;;;;711.97;657.12;;;;;;;20.16;63.68;97008.97;;;;-53
2023/10/20 12:16:25;;;;;;;688.25;634.68;;;;;;;20.15;63.63;97017.07;;;;-54
2023/10/20 12:19:25;;;;;;;712.09;656.49;;;;;;;20.15;63.67;97010.34;;;;-53
2023/10/20 12:22:27;;;;;;;712.85;657.25;;;;;;;20.14;63.63;97013.01;;;;-62
2023/10/20 12:25:25;;;;;;;731.93;675.74;;;;;;;20.14;63.60;97014.96;;;;-63
2023/10/20 12:28:26;;;;;;;738.01;681.75;;;;;;;20.13;63.61;97010.84;;;;-53
2023/10/20 12:31:25;;;;;;;743.07;686.58;;;;;;;20.12;63.57;97005.51;;;;-53
2023/10/20 12:34:25;;;;;;;715.21;659.35;;;;;;;20.11;63.56;96991.11;;;;-53
2023/10/20 12:37:25;;;;;;;721.13;664.69;;;;;;;20.11;63.59;96991.05;;;;-52
2023/10/20 12:40:25;;;;;;;718.69;662.11;;;;;;;20.10;63.57;97001.09;;;;-58
2023/10/20 12:43:26;;;;;;;700.21;644.84;;;;;;;20.09;63.59;97007.47;;;;-52
2023/10/20 12:46:24;;;;;;;717.31;661.92;;;;;;;20.09;63.58;97009.78;;;;-63
2023/10/20 12:49:24;;;;;;;745.21;688.86;;;;;;;20.08;63.55;97017.12;;;;-53
2023/10/20 12:52:24;;;;;;;696.23;641.01;;;;;;;20.07;63.59;97030.16;;;;-53
2023/10/20 12:55:26;;;;;;;703.51;648.06;;;;;;;20.07;63.51;97033.58;;;;-53
2023/10/20 12:58:25;;;;;;;702.25;646.84;;;;;;;20.07;63.53;97041.41;;;;-61
2023/10/20 13:01:25;;;;;;;714.65;658.55;;;;;;;20.06;63.52;97042.06;;;;-63
2023/10/20 13:04:24;;;;;;;712.37;656.67;;;;;;;20.05;63.56;97040.67;;;;-52
2023/10/20 13:07:24;;;;;;;699.31;644.22;;;;;;;20.05;63.52;97040.22;;;;-61
2023/10/20 13:10:25;;;;;;;718.99;662.97;;;;;;;20.05;63.55;97059.88;;;;-58
2023/10/20 13:13:25;;;;;;;654.32;603.10;;;;;;;20.04;63.49;97066.78;;;;-62
2023/10/20 13:16:25;;;;;;;666.48;614.52;;;;;;;20.05;63.48;97064.77;;;;-64
2023/10/20 13:19:25;;;;;;;645.62;594.69;;;;;;;20.03;63.51;97065.87;;;;-63
2023/10/20 13:22:25;;;;;;;735.53;678.54;;;;;;;20.04;63.54;97074.39;;;;-62
2023/10/20 13:25:26;;;;;;;678.61;625.15;;;;;;;20.03;63.54;97078.03;;;;-61
2023/10/20 13:28:24;;;;;;;695.32;640.83;;;;;;;20.02;63.52;97078.91;;;;-53
2023/10/20 13:31:24;;;;;;;719.49;663.23;;;;;;;20.03;63.75;97084.05;;;;-54
2023/10/20 13:34:24;;;;;;;723.61;667.17;;;;;;;20.04;63.95;97099.88;;;;-63
2023/10/20 13:37:24;;;;;;;685.59;631.48;;;;;;;20.06;64.07;97092.88;;;;-60
2023/10/20 13:40:25;;;;;;;727.17;670.63;;;;;;;20.06;64.00;97087.64;;;;-59
2023/10/20 13:43:25;;;;;;;744.31;686.63;;;;;;;20.07;64.06;97091.28;;;;-67
2023/10/20 13:46:25;;;;;;;742.23;684.80;;;;;;;20.07;64.20;97096.39;;;;-58
2023/10/20 13:49:25;;;;;;;740.67;683.40;;;;;;;20.08;64.23;97092.09;;;;-53
2023/10/20 13:52:25;;;;;;;744.48;686.57;;;;;;;20.08;64.22;97092.42;;;;-62
2023/10/20 13:55:24;;;;;;;744.11;686.63;;;;;;;20.10;64.26;97098.85;;;;-51
2023/10/20 13:58:26;;;;;;;743.03;685.46;;;;;;;20.11;64.27;97113.02;;;;-53
2023/10/20 14:01:25;;;;;;;743.81;686.46;;;;;;;20.13;64.29;97123.91;;;;-57
2023/10/20 14:04:25;;;;;;;744.99;687.67;;;;;;;20.13;64.25;97126.52;;;;-60
2023/10/20 14:07:24;;;;;;;743.62;686.51;;;;;;;20.14;64.28;97149.86;;;;-53
2023/10/20 14:10:26;;;;;;;745.63;688.17;;;;;;;20.15;64.30;97161.20;;;;-63
2023/10/20 14:13:25;;;;;;;749.10;691.49;;;;;;;20.16;64.31;97165.78;;;;-61
2023/10/20 14:16:25;;;;;;;755.93;698.53;;;;;;;20.17;64.26;97176.77;;;;-53
2023/10/20 14:19:25;;;;;;;753.21;695.91;;;;;;;20.17;64.31;97185.06;;;;-53
